createdAt,value
2023-04-19T00:08:07.847Z,79.1
2023-04-19T00:27:20.419Z,80.3
2023-04-19T00:46:33.180Z,81.3
2023-04-19T01:05:44.969Z,82.5
2023-04-19T01:24:56.844Z,84
2023-04-19T01:44:07.993Z,84.3
2023-04-19T02:03:20.884Z,84.6
2023-04-19T02:22:32.548Z,85.9
2023-04-19T02:41:44.144Z,89.5
2023-04-19T03:00:58.468Z,91.2
2023-04-19T03:20:10.949Z,93.5
2023-04-19T03:39:24.455Z,92.7
2023-04-19T03:58:35.580Z,92.1
2023-04-19T04:17:48.214Z,90.3
2023-04-19T04:36:59.986Z,90.4
2023-04-19T04:56:13.146Z,89.5
2023-04-19T05:15:25.875Z,86.1
2023-04-19T05:34:36.684Z,84.7
2023-04-19T05:53:48.633Z,84.9
2023-04-19T06:13:03.665Z,82.3
2023-04-19T06:32:15.792Z,78.9
2023-04-19T06:51:27.181Z,75.9
2023-04-19T07:10:40.584Z,69.8
2023-04-19T07:29:55.142Z,65.4
2023-04-19T07:49:21.851Z,50.4
2023-04-19T08:08:39.854Z,45.1
2023-04-19T08:27:48.426Z,45
2023-04-19T08:47:01.911Z,41.3
2023-04-19T09:06:09.479Z,37.6
2023-04-19T09:45:28.989Z,41.3
2023-04-19T10:04:29.321Z,41.1
2023-04-19T10:23:46.247Z,36.2
2023-04-19T10:42:58.226Z,30.9
2023-04-19T11:02:08.584Z,30.6
2023-04-19T11:21:20.231Z,29
2023-04-19T11:40:28.717Z,30.6
2023-04-19T11:59:37.251Z,32.7
2023-04-19T12:18:48.146Z,31
2023-04-19T12:37:57.498Z,31.6
2023-04-19T12:57:07.566Z,29.1
2023-04-19T13:16:19.962Z,29.7
2023-04-19T13:35:33.376Z,33.1
2023-04-19T13:54:43.972Z,32.2
2023-04-19T14:13:53.133Z,32.8
2023-04-19T14:33:04.761Z,32.5
2023-04-19T14:52:12.640Z,32.4
2023-04-19T15:11:23.725Z,32.4
2023-04-19T15:30:36.770Z,32.8
2023-04-19T15:49:43.889Z,31.4
2023-04-19T16:08:56.076Z,32.2
2023-04-19T16:28:05.551Z,33.2
2023-04-19T16:47:14.200Z,33.1
2023-04-19T17:06:25.121Z,32.8
2023-04-19T17:25:33.549Z,33.4
2023-04-19T17:44:43.057Z,34.3
2023-04-19T18:03:53.962Z,36
2023-04-19T18:23:02.190Z,36.8
2023-04-19T18:42:12.057Z,39.4
2023-04-19T19:01:25.369Z,42.1
2023-04-19T19:20:29.355Z,42.7
2023-04-19T19:39:36.620Z,45.7
2023-04-19T19:58:52.270Z,47.9
2023-04-19T20:17:56.270Z,50.4
2023-04-19T20:37:05.452Z,50.8
2023-04-19T20:56:15.834Z,51.8
2023-04-19T21:15:28.583Z,54
2023-04-19T21:34:39.168Z,53.8
2023-04-19T21:53:50.738Z,54.1
2023-04-19T22:12:59.554Z,55
2023-04-19T22:32:10.543Z,52.8
2023-04-19T22:51:21.224Z,52.5
2023-04-19T23:10:29.052Z,53.1
2023-04-19T23:29:39.012Z,53.3
2023-04-19T23:48:48.798Z,54.8
